DAUU

Ain el Beida Airport

Ouargla, Algeria
TAF DAUU 260500Z 2606/2615 24008KT CAVOK PROB30 2606/2609 3000 HZ BECMG 2609/2612 24018KT 5000 DRSA PROB40 TEMPO 2610/2614 24018G28KT 1500 BLSA
Issued Valid From Valid To
Apr-26 @ 05:00 UTC
(an hour ago)
Apr-26 @ 06:00 UTC
(a few seconds ago)
Apr-26 @ 15:00 UTC
(in 9 hours)
Apr-26 @ 06:00 to Apr-26 @ 09:00
TAF DAUU 260500Z 2606/2615 24008KT CAVOK
Wind Visibility Clouds Conditions
240° at 8 knots 10,000+ meters
  • No significant clouds
Probable  (Probability 30%) Apr-26 @ 06:00 to Apr-26 @ 09:00
PROB30 2606/2609 3000 HZ
Visibility Conditions
2,993 meters
  • Haze
Becoming Apr-26 @ 09:00 to Apr-26 @ 15:00
BECMG 2609/2612 24018KT 5000 DRSA
Wind Visibility Clouds Conditions
240° at 18 knots 5,005 meters
  • No significant clouds
  • Low drifting
  • Sand
Temporary  (Probability 40%) Apr-26 @ 10:00 to Apr-26 @ 14:00
PROB40 TEMPO 2610/2614 24018G28KT 1500 BLSA
Wind Visibility Conditions
240° at 18 knots
 Gusting to 28 knots
1,497 meters
  • Blowing
  • Sand
TAF DAUU 260500Z 2606/2615 24008KT CAVOK PROB30 2606/2609 3000 HZ BECMG 2609/2612 24018KT 5000 DRSA PROB40 TEMPO 2610/2614 24018G28KT 1500 BLSA
Issued Apr-26 @ 05:00 UTC
(an hour ago)
Valid From Apr-26 @ 06:00 UTC
(a few seconds ago)
Valid To Apr-26 @ 15:00 UTC
(in 9 hours)
Apr-26 @ 06:00 - Apr-26 @ 09:00
Wind Visibility
240° at 8 knots 10,000+ meters
Clouds
  • No significant clouds
Conditions
Probability 30% Probable Apr-26 @ 06:00 - Apr-26 @ 09:00
Conditions
  • Haze
Becoming Apr-26 @ 09:00 - Apr-26 @ 15:00
Wind Visibility
240° at 18 knots 5,005 meters
Clouds
  • No significant clouds
Conditions
  • Low drifting
  • Sand
Probability 40% Temporary Apr-26 @ 10:00 - Apr-26 @ 14:00
Wind Visibility
240° at 18 knots
 Gusting to 28 knots
1,497 meters
Conditions
  • Blowing
  • Sand